Corinne, UT

9:21 AM MST on February 13, 2016 (GMT -0700)
MesoWest | | Change Station
CLOSE
Current Station
Personal Weather Station
Location: Corinne, UT
Elevation: 4211 ft
Nearby Weather Stations

Elev 4211 ft 41.30 °N, 112.27 °W | Updated 36 minutes ago

Fog
Fog
27 °F
Feels Like 27 °F
N
2
Wind Variable Wind from East
Gusts 0.0 mph

Today
High -- | Low -- °F
--% Chance of Precip.
Yesterday
High -- | Low -- °F
Precip. -- in
Pressure 30.34 in
Visibility 1.2 miles
Clouds Overcast 500 ft
Windchill 27 °F
Dew Point 25 °F
Humidity 94%
Rainfall in
Snow Depth Not available.
7:27 AM 6:00 PM
Waxing Crescent, 32% visible
METAR KBMC 131555Z AUTO 00000KT 1 1/4SM OVC005 M03/M04 A3034 RMK AO1 T10301040
Pressure 30.34 in
Visibility 1.2 miles
Clouds Overcast 500 ft
Windchill 27 °F
Dew Point 25 °F
Humidity 94%
Rainfall in
Snow Depth Not available.
7:27 AM 6:00 PM
Waxing Crescent, 32% visible
METAR KBMC 131555Z AUTO 00000KT 1 1/4SM OVC005 M03/M04 A3034 RMK AO1 T10301040

10-Day Weather Forecast

Almanac

Astronomy

Feb. 13, 2016 Rise Set
Actual Time
Civil Twilight
Nautical Twilight
Astronomical Twilight
Moon
Length of Visible Light
Length of Day
Tomorrow will be .
, % of the Moon is Illuminated

Today's Extremes

State Highs State Lows

Community

WunderPhotos

Upload Photos

1,892,599 photos uploaded!

WunderBlog® & News

Nearby

Air Quality

  Air Quality AQ Index Pollutant
Not available.

Snow Depth

Station Depth Elevation

Earthquake Activity

City Distance Mag. Time & Date
Minimum magnitude displayed is 2.5.

Coastal Water Temperatures

Place Temperature

Stations

Nearby Weather Stations

Station Location Temp. Windchill Dew Point Humidity Wind Precip. Elev Updated Type
                   

Watches & Warnings

There are currently no watches in effect.